San Kennedy — WDE2882 — position and weather

sailwx.info

Track history (hours):
 
Tides and Currents Weather Stations Pressure Air Temp Water Temp Dewpoint Dewpoint Depression Visibility Wind Speed Wind Dir Waves Ship Positions

San Kennedy

Owner: Buffalo Marine Service, Inc., Houston, TX. More information available from US FCC via Universal Licensing System and Coast Guard Vessel Documentation Center.

Last reported at 2017-Sep-17 09:47 UTC. Time now 2017-Sep-21 10:46 UTC.
Position N 29°50' W 093°58'.

Length 21 m; draft 3.1 m.

Type: Tug. MMSI: 367330890.

Date/timePositionNaut miles runAvg speedWind from/ knotsBaromVisibWave heightAir tempDewpointWater temp
2017-Sep-17 09:47N 29°50' W 093°58'0 0.0
2017-Sep-17 05:15N 29°50' W 093°58'1 1.5
2017-Sep-17 04:50N 29°50' W 093°58'2 3.7
2017-Sep-17 04:21N 29°49' W 093°60'1 2.4
2017-Sep-17 03:48N 29°48' W 094°00'1 4.7
2017-Sep-17 03:30N 29°47' W 094°02'3 5.1
2017-Sep-17 03:00N 29°45' W 094°04'2 5.0
2017-Sep-17 02:30N 29°44' W 094°06'2 4.9
2017-Sep-17 02:00N 29°42' W 094°08'  
2017-Sep-08 14:45N 30°04' W 093°40'1 5.4
2017-Sep-08 14:30N 30°04' W 093°39'2 3.8
2017-Sep-08 14:00N 30°04' W 093°36'1 1.4
2017-Sep-08 13:30N 30°04' W 093°36'0 0.7
2017-Sep-08 13:00N 30°04' W 093°35'0 0.0
2017-Sep-08 12:30N 30°04' W 093°35'0 0.1
2017-Sep-08 12:00N 30°04' W 093°35'2 3.3
2017-Sep-08 11:27N 30°04' W 093°37'  
Track history (hours):
 
Tides and Currents Weather Stations Pressure Air Temp Water Temp Dewpoint Dewpoint Depression Visibility Wind Speed Wind Dir Waves Ship Positions

San Kennedy

Owner: Buffalo Marine Service, Inc., Houston, TX. More information available from US FCC via Universal Licensing System and Coast Guard Vessel Documentation Center.

Last reported at 2017-Sep-17 09:47 UTC. Time now 2017-Sep-21 10:46 UTC.
Position N 29°50' W 093°58'.

Length 21 m; draft 3.1 m.

Type: Tug. MMSI: 367330890.

Date/timePositionNaut miles runAvg speedWind from/ knotsBaromVisibWave heightAir tempDewpointWater temp
2017-Sep-17 09:47N 29°50' W 093°58'0 0.0
2017-Sep-17 05:15N 29°50' W 093°58'1 1.5
2017-Sep-17 04:50N 29°50' W 093°58'2 3.7
2017-Sep-17 04:21N 29°49' W 093°60'1 2.4
2017-Sep-17 03:48N 29°48' W 094°00'1 4.7
2017-Sep-17 03:30N 29°47' W 094°02'3 5.1
2017-Sep-17 03:00N 29°45' W 094°04'2 5.0
2017-Sep-17 02:30N 29°44' W 094°06'2 4.9
2017-Sep-17 02:00N 29°42' W 094°08'  
2017-Sep-08 14:45N 30°04' W 093°40'1 5.4
2017-Sep-08 14:30N 30°04' W 093°39'2 3.8
2017-Sep-08 14:00N 30°04' W 093°36'1 1.4
2017-Sep-08 13:30N 30°04' W 093°36'0 0.7
2017-Sep-08 13:00N 30°04' W 093°35'0 0.0
2017-Sep-08 12:30N 30°04' W 093°35'0 0.1
2017-Sep-08 12:00N 30°04' W 093°35'2 3.3
2017-Sep-08 11:27N 30°04' W 093°37'  

Dump ship's entire track history